createdAt,value
2023-02-12T00:04:26.988Z,16.50
2023-02-12T00:09:30.068Z,16.92
2023-02-12T00:14:33.152Z,18.55
2023-02-12T00:19:37.816Z,16.48
2023-02-12T00:24:40.906Z,15.05
2023-02-12T00:29:44.018Z,15.10
2023-02-12T00:34:48.591Z,17.23
2023-02-12T00:39:52.574Z,16.85
2023-02-12T00:44:55.736Z,13.90
2023-02-12T00:50:00.261Z,15.90
2023-02-12T00:55:03.426Z,15.07
2023-02-12T01:00:07.176Z,17.77
2023-02-12T01:05:13.141Z,15.18
2023-02-12T01:10:16.267Z,19.10
2023-02-12T01:15:19.787Z,16.92
2023-02-12T01:20:24.943Z,17.35
2023-02-12T01:25:29.093Z,18.73
2023-02-12T01:30:32.443Z,15.35
2023-02-12T01:35:38.227Z,17.40
2023-02-12T01:40:42.433Z,19.23
2023-02-12T01:45:47.742Z,18.73
2023-02-12T01:50:52.922Z,17.30
2023-02-12T01:55:58.020Z,18.17
2023-02-12T02:01:02.968Z,15.27
2023-02-12T02:06:11.084Z,18.77
2023-02-12T02:11:32.546Z,17.75
2023-02-12T02:16:37.533Z,19.75
2023-02-12T02:22:01.719Z,19.10
2023-02-12T02:27:19.907Z,19.23
2023-02-12T02:32:25.123Z,19.27
2023-02-12T02:37:29.737Z,15.23
2023-02-12T02:42:36.084Z,17.73
2023-02-12T02:47:42.471Z,16.00
2023-02-12T02:52:48.194Z,18.80
2023-02-12T02:57:53.653Z,18.27
2023-02-12T03:03:01.542Z,18.05
2023-02-12T03:08:08.201Z,16.17
2023-02-12T03:13:13.401Z,20.00
2023-02-12T03:18:19.968Z,19.35
2023-02-12T03:23:26.122Z,16.30
2023-02-12T03:28:31.015Z,17.88
2023-02-12T03:33:39.247Z,18.52
2023-02-12T03:38:45.186Z,18.55
2023-02-12T03:43:50.910Z,18.35
2023-02-12T03:49:00.448Z,20.67
2023-02-12T03:54:05.112Z,17.98
2023-02-12T03:59:08.354Z,18.70
2023-02-12T04:04:12.989Z,19.27
2023-02-12T04:09:16.384Z,19.17
2023-02-12T04:14:23.941Z,20.88
2023-02-12T04:19:31.936Z,18.02
2023-02-12T04:24:41.458Z,20.25
2023-02-12T04:29:49.575Z,18.27
2023-02-12T04:34:58.407Z,16.75
2023-02-12T04:40:03.980Z,16.77
2023-02-12T04:45:07.557Z,18.25
2023-02-12T04:50:12.653Z,21.80
2023-02-12T04:55:16.189Z,19.70
2023-02-12T05:00:19.499Z,16.88
2023-02-12T05:05:24.531Z,18.58
2023-02-12T05:10:27.769Z,18.80
2023-02-12T05:15:30.902Z,19.15
2023-02-12T05:20:35.390Z,20.38
2023-02-12T05:25:38.505Z,21.35
2023-02-12T05:30:41.614Z,23.23
2023-02-12T05:35:46.102Z,22.27
2023-02-12T05:40:49.315Z,20.35
2023-02-12T05:45:52.606Z,18.50
2023-02-12T05:51:02.626Z,19.48
2023-02-12T05:56:12.840Z,21.70
2023-02-12T06:01:17.076Z,19.42
2023-02-12T06:06:22.014Z,20.52
2023-02-12T06:11:25.472Z,20.38
2023-02-12T06:16:29.333Z,18.88
2023-02-12T06:21:34.376Z,20.85
2023-02-12T06:26:37.497Z,20.73
2023-02-12T06:31:40.708Z,22.92
2023-02-12T06:36:45.966Z,22.38
2023-02-12T06:41:49.125Z,19.60
2023-02-12T06:46:52.229Z,20.98
2023-02-12T06:51:56.781Z,20.25
2023-02-12T06:56:59.931Z,18.63
2023-02-12T07:02:03.051Z,21.08
2023-02-12T07:07:07.771Z,22.27
2023-02-12T07:12:10.973Z,20.88
2023-02-12T07:17:14.023Z,19.95
2023-02-12T07:22:18.695Z,22.30
2023-02-12T07:27:21.849Z,20.35
2023-02-12T07:32:25.003Z,23.00
2023-02-12T07:37:29.533Z,19.23
2023-02-12T07:42:32.825Z,22.52
2023-02-12T07:47:41.786Z,21.85
2023-02-12T07:52:46.254Z,21.95
2023-02-12T07:57:49.663Z,23.30
2023-02-12T08:02:53.425Z,23.40
2023-02-12T08:07:57.961Z,22.83
2023-02-12T08:13:01.095Z,22.77
2023-02-12T08:18:04.779Z,25.67
2023-02-12T08:23:09.359Z,23.38
2023-02-12T08:28:12.671Z,24.13
2023-02-12T08:33:16.134Z,21.40
2023-02-12T08:38:20.589Z,25.38
2023-02-12T08:43:23.866Z,25.77
2023-02-12T08:48:27.261Z,26.60
2023-02-12T08:53:32.040Z,25.33
2023-02-12T08:58:36.122Z,22.40
2023-02-12T09:03:39.417Z,23.80
2023-02-12T09:08:44.897Z,23.00
2023-02-12T09:13:48.711Z,23.27
2023-02-12T09:18:52.209Z,20.58
2023-02-12T09:23:57.217Z,27.67
2023-02-12T09:29:00.538Z,24.65
2023-02-12T09:34:04.918Z,25.25
2023-02-12T09:39:09.597Z,25.60
2023-02-12T09:44:16.426Z,23.08
2023-02-12T09:49:24.412Z,26.75
2023-02-12T09:54:32.965Z,26.00
2023-02-12T09:59:38.009Z,26.30
2023-02-12T10:04:51.722Z,23.13
2023-02-12T10:10:20.974Z,27.92
2023-02-12T10:15:42.178Z,25.67
2023-02-12T10:25:54.298Z,26.75
2023-02-12T10:30:59.005Z,22.42
2023-02-12T10:36:04.402Z,23.25
2023-02-12T10:41:09.413Z,21.40
2023-02-12T10:46:15.505Z,25.92
2023-02-12T10:51:26.965Z,20.40
2023-02-12T10:56:31.722Z,20.98
2023-02-12T11:01:36.630Z,18.90
2023-02-12T11:06:40.326Z,17.77
2023-02-12T11:11:45.158Z,18.77
2023-02-12T11:16:52.945Z,18.38
2023-02-12T11:22:06.100Z,17.92
2023-02-12T11:27:25.797Z,18.83
2023-02-12T11:32:28.967Z,20.80
2023-02-12T11:37:33.465Z,20.48
2023-02-12T11:42:39.045Z,21.75
2023-02-12T11:47:42.389Z,20.42
2023-02-12T11:52:50.117Z,20.42
2023-02-12T11:57:55.663Z,19.98
2023-02-12T12:03:01.931Z,20.73
2023-02-12T12:08:08.500Z,20.33
2023-02-12T12:13:15.311Z,18.35
2023-02-12T12:18:41.124Z,18.70
2023-02-12T12:23:45.617Z,17.80
2023-02-12T12:28:52.808Z,18.23
2023-02-12T12:34:00.427Z,17.65
2023-02-12T12:39:08.805Z,18.63
2023-02-12T12:44:20.693Z,16.38
2023-02-12T12:49:35.838Z,18.25
2023-02-12T12:54:49.362Z,17.27
2023-02-12T13:00:10.750Z,16.50
2023-02-12T13:05:41.146Z,16.52
2023-02-12T13:10:48.230Z,12.43
2023-02-12T13:15:54.651Z,15.75
2023-02-12T13:21:01.813Z,15.75
2023-02-12T13:26:10.989Z,18.17
2023-02-12T13:36:39.374Z,15.02
2023-02-12T13:41:46.970Z,18.63
2023-02-12T13:46:54.646Z,18.13
2023-02-12T13:52:00.605Z,17.20
2023-02-12T13:57:09.885Z,19.63
2023-02-12T14:02:32.052Z,18.02
2023-02-12T14:07:42.662Z,18.85
2023-02-12T14:12:47.651Z,16.60
2023-02-12T14:17:55.564Z,15.10
2023-02-12T14:23:22.898Z,17.85
2023-02-12T14:28:30.287Z,18.17
2023-02-12T14:33:33.683Z,16.38
2023-02-12T14:39:02.171Z,18.48
2023-02-12T14:44:24.312Z,17.08
2023-02-12T14:49:29.698Z,16.25
2023-02-12T14:54:35.513Z,16.35
2023-02-12T14:59:40.795Z,16.40
2023-02-12T15:04:46.787Z,17.02
2023-02-12T15:09:53.194Z,15.85
2023-02-12T15:15:00.144Z,15.38
2023-02-12T15:20:07.310Z,16.75
2023-02-12T15:25:17.562Z,16.63
2023-02-12T15:30:26.412Z,9.80
2023-02-12T15:35:33.243Z,16.42
2023-02-12T15:40:36.659Z,16.40
2023-02-12T15:45:39.857Z,13.93
2023-02-12T15:50:51.164Z,17.65
2023-02-12T15:55:56.121Z,17.90
2023-02-12T16:01:02.319Z,18.05
2023-02-12T16:06:11.404Z,16.65
2023-02-12T16:11:17.963Z,12.82
2023-02-12T16:16:25.188Z,16.90
2023-02-12T16:21:30.070Z,16.30
2023-02-12T16:26:33.575Z,16.33
2023-02-12T16:31:37.129Z,17.70
2023-02-12T16:36:47.558Z,16.58
2023-02-12T16:41:54.171Z,11.93
2023-02-12T16:46:59.768Z,17.33
2023-02-12T16:52:29.698Z,15.68
2023-02-12T16:57:33.064Z,15.90
2023-02-12T17:02:37.646Z,14.95
2023-02-12T17:07:42.285Z,15.32
2023-02-12T17:12:46.453Z,13.23
2023-02-12T17:17:49.835Z,13.15
2023-02-12T17:22:57.307Z,14.57
2023-02-12T17:28:01.019Z,16.83
2023-02-12T17:33:04.380Z,14.90
2023-02-12T17:38:09.445Z,16.50
2023-02-12T17:43:12.709Z,13.90
2023-02-12T17:48:17.217Z,13.05
2023-02-12T17:53:21.734Z,16.38
2023-02-12T17:58:24.950Z,16.65
2023-02-12T18:03:28.244Z,17.25
2023-02-12T18:08:33.043Z,18.98
2023-02-12T18:13:36.291Z,15.93
2023-02-12T18:18:40.232Z,18.75
2023-02-12T18:23:45.466Z,19.40
2023-02-12T18:28:49.051Z,19.13
2023-02-12T18:33:52.445Z,17.55
2023-02-12T18:38:57.292Z,16.98
2023-02-12T18:44:00.746Z,21.55
2023-02-12T18:49:04.359Z,21.52
2023-02-12T18:54:10.233Z,22.88
2023-02-12T18:59:15.405Z,18.17
2023-02-12T19:04:19.407Z,18.80
2023-02-12T19:09:24.821Z,20.20
2023-02-12T19:14:28.702Z,19.20
2023-02-12T19:19:32.043Z,17.95
2023-02-12T19:24:46.512Z,20.80
2023-02-12T19:29:50.184Z,22.02
2023-02-12T19:34:53.451Z,22.15
2023-02-12T19:39:58.155Z,22.02
2023-02-12T19:45:01.371Z,22.98
2023-02-12T19:50:04.689Z,23.73
2023-02-12T19:55:09.643Z,21.20
2023-02-12T20:00:13.606Z,24.50
2023-02-12T20:05:17.126Z,23.52
2023-02-12T20:10:22.009Z,24.60
2023-02-12T20:15:26.549Z,25.02
2023-02-12T20:20:29.983Z,23.40
2023-02-12T20:25:34.612Z,22.45
2023-02-12T20:30:40.266Z,24.10
2023-02-12T20:35:43.578Z,22.02
2023-02-12T20:40:48.345Z,22.50
2023-02-12T20:45:51.792Z,22.33
2023-02-12T20:50:55.224Z,22.33
2023-02-12T20:56:02.671Z,20.88
2023-02-12T21:01:07.005Z,21.90
2023-02-12T21:06:10.829Z,20.45
2023-02-12T21:11:16.581Z,20.65
2023-02-12T21:16:21.407Z,21.13
2023-02-12T21:21:25.631Z,17.98
2023-02-12T21:26:30.837Z,20.35
2023-02-12T21:31:35.270Z,16.27
2023-02-12T21:36:40.634Z,20.05
2023-02-12T21:41:45.260Z,17.83
2023-02-12T21:46:48.697Z,22.15
2023-02-12T21:51:52.526Z,22.75
2023-02-12T21:56:57.644Z,22.00
2023-02-12T22:02:02.165Z,20.38
2023-02-12T22:07:05.551Z,22.92
2023-02-12T22:12:10.051Z,21.30
2023-02-12T22:17:13.405Z,20.58
2023-02-12T22:22:16.541Z,20.52
2023-02-12T22:27:21.041Z,20.45
2023-02-12T22:32:24.345Z,19.08
2023-02-12T22:37:28.011Z,19.80
2023-02-12T22:42:32.507Z,19.73
2023-02-12T22:47:35.602Z,18.27
2023-02-12T22:52:38.805Z,18.95
2023-02-12T22:57:43.301Z,21.23
2023-02-12T23:02:46.417Z,20.23
2023-02-12T23:07:49.640Z,20.65
2023-02-12T23:12:54.161Z,18.70
2023-02-12T23:17:57.391Z,19.90
2023-02-12T23:23:00.493Z,18.42
2023-02-12T23:28:05.142Z,19.88
2023-02-12T23:33:08.306Z,18.40
2023-02-12T23:38:11.484Z,17.80
2023-02-12T23:43:16.241Z,20.23
2023-02-12T23:48:19.382Z,17.98
2023-02-12T23:53:22.563Z,19.17
2023-02-12T23:58:27.274Z,16.40
